createdAt,value
2022-12-08T00:01:22.122Z,38.22
2022-12-08T00:03:49.741Z,36.47
2022-12-08T00:06:50.382Z,38.63
2022-12-08T00:09:24.247Z,33.22
2022-12-08T00:11:55.462Z,35.05
2022-12-08T00:14:34.225Z,33.55
2022-12-08T00:17:03.305Z,36.20
2022-12-08T00:19:31.252Z,37.47
2022-12-08T00:21:59.373Z,38.50
2022-12-08T00:24:31.573Z,36.22
2022-12-08T00:26:58.682Z,32.60
2022-12-08T00:29:25.579Z,35.70
2022-12-08T00:31:52.841Z,37.03
2022-12-08T00:34:20.130Z,34.55
2022-12-08T00:36:47.178Z,36.03
2022-12-08T00:39:16.069Z,35.47
2022-12-08T00:42:01.457Z,34.55
2022-12-08T00:44:28.817Z,36.10
2022-12-08T00:46:55.863Z,35.95
2022-12-08T00:49:23.341Z,32.90
2022-12-08T00:51:50.775Z,33.78
2022-12-08T00:54:18.442Z,35.28
2022-12-08T00:56:46.328Z,34.42
2022-12-08T00:59:14.689Z,34.85
2022-12-08T01:01:43.798Z,36.80
2022-12-08T01:04:15.740Z,38.25
2022-12-08T01:06:43.875Z,39.55
2022-12-08T01:09:12.774Z,37.00
2022-12-08T01:11:39.887Z,35.30
2022-12-08T01:14:06.932Z,36.15
2022-12-08T01:16:36.095Z,35.85
2022-12-08T01:19:04.746Z,35.97
2022-12-08T01:21:31.598Z,38.80
2022-12-08T01:24:01.219Z,38.20
2022-12-08T01:26:28.212Z,39.10
2022-12-08T01:28:55.281Z,41.17
2022-12-08T01:31:23.164Z,41.10
2022-12-08T01:33:50.529Z,39.95
2022-12-08T01:36:29.199Z,39.80
2022-12-08T01:39:01.240Z,40.45
2022-12-08T01:41:32.369Z,40.70
2022-12-08T01:44:04.833Z,41.67
2022-12-08T01:46:33.482Z,44.17
2022-12-08T01:49:23.378Z,41.47
2022-12-08T01:51:59.798Z,45.85
2022-12-08T01:54:31.957Z,43.35
2022-12-08T01:57:14.579Z,42.78
2022-12-08T01:59:50.076Z,43.95
2022-12-08T02:02:17.207Z,43.35
2022-12-08T02:04:44.315Z,45.65
2022-12-08T02:07:13.497Z,46.00
2022-12-08T02:09:42.125Z,48.63
2022-12-08T02:12:10.319Z,46.38
2022-12-08T02:14:37.550Z,46.58
2022-12-08T02:17:36.744Z,46.67
2022-12-08T02:20:31.635Z,44.05
2022-12-08T02:23:37.969Z,46.30
2022-12-08T02:26:29.513Z,45.17
2022-12-08T02:29:17.129Z,43.17
2022-12-08T02:32:32.360Z,46.08
2022-12-08T02:35:26.391Z,45.15
2022-12-08T02:38:14.351Z,42.15
2022-12-08T02:41:05.771Z,44.45
2022-12-08T02:43:55.703Z,41.67
2022-12-08T02:46:28.591Z,49.67
2022-12-08T02:48:56.777Z,45.03
2022-12-08T02:51:23.631Z,44.95
2022-12-08T02:53:51.071Z,40.80
2022-12-08T02:56:51.928Z,40.42
2022-12-08T02:59:42.780Z,42.65
2022-12-08T03:02:55.542Z,44.08
2022-12-08T03:05:51.780Z,40.92
2022-12-08T03:08:25.002Z,44.13
2022-12-08T03:11:22.009Z,42.70
2022-12-08T03:14:01.461Z,43.42
2022-12-08T03:16:30.880Z,45.30
2022-12-08T03:19:18.096Z,44.30
2022-12-08T03:21:48.833Z,42.72
2022-12-08T03:24:17.745Z,46.00
2022-12-08T03:27:07.190Z,43.13
2022-12-08T03:29:34.544Z,43.90
2022-12-08T03:32:12.116Z,42.97
2022-12-08T03:34:42.324Z,40.85
2022-12-08T03:39:35.910Z,40.70
2022-12-08T03:42:02.843Z,39.55
2022-12-08T03:44:29.633Z,42.53
2022-12-08T03:46:56.547Z,41.05
2022-12-08T03:49:23.446Z,44.00
2022-12-08T03:51:51.395Z,41.88
2022-12-08T03:54:18.275Z,40.67
2022-12-08T03:56:45.188Z,42.80
2022-12-08T03:59:12.051Z,41.25
2022-12-08T04:01:39.103Z,40.38
2022-12-08T04:04:06.057Z,40.53
2022-12-08T04:06:33.023Z,38.92
2022-12-08T04:08:59.853Z,40.70
2022-12-08T04:11:26.854Z,40.15
2022-12-08T04:13:56.657Z,40.28
2022-12-08T04:16:25.476Z,40.95
2022-12-08T04:18:53.642Z,41.17
2022-12-08T04:21:22.003Z,42.05
2022-12-08T04:23:49.932Z,43.08
2022-12-08T04:26:17.094Z,41.45
2022-12-08T04:28:43.957Z,40.95
2022-12-08T04:31:11.147Z,40.75
2022-12-08T04:33:38.231Z,40.75
2022-12-08T04:36:06.429Z,41.78
2022-12-08T04:38:34.353Z,40.25
2022-12-08T04:41:02.375Z,40.40
2022-12-08T04:43:29.822Z,37.38
2022-12-08T04:45:56.699Z,37.47
2022-12-08T04:48:24.048Z,38.53
2022-12-08T04:50:51.690Z,37.72
2022-12-08T04:53:19.898Z,36.10
2022-12-08T04:55:48.794Z,38.25
2022-12-08T04:58:17.667Z,39.38
2022-12-08T05:00:45.559Z,36.45
2022-12-08T05:03:13.652Z,36.15
2022-12-08T05:05:41.891Z,39.90
2022-12-08T05:08:10.594Z,38.35
2022-12-08T05:10:37.991Z,43.00
2022-12-08T05:13:04.879Z,42.08
2022-12-08T05:15:31.761Z,39.35
2022-12-08T05:17:58.598Z,40.90
2022-12-08T05:20:25.595Z,40.97
2022-12-08T05:22:52.408Z,40.92
2022-12-08T05:25:19.346Z,45.42
2022-12-08T05:27:46.238Z,40.40
2022-12-08T05:30:13.279Z,41.28
2022-12-08T05:32:40.077Z,42.88
2022-12-08T05:35:07.469Z,41.60
2022-12-08T05:37:34.263Z,43.50
2022-12-08T05:40:01.198Z,44.80
2022-12-08T05:42:28.120Z,44.20
2022-12-08T05:44:55.062Z,45.42
2022-12-08T05:47:21.940Z,45.38
2022-12-08T05:49:48.950Z,46.17
2022-12-08T05:52:17.067Z,47.83
2022-12-08T05:54:44.438Z,46.97
2022-12-08T05:57:11.274Z,44.47
2022-12-08T05:59:39.149Z,45.55
2022-12-08T06:02:06.012Z,45.42
2022-12-08T06:04:32.928Z,45.97
2022-12-08T06:06:59.752Z,46.30
2022-12-08T06:09:26.669Z,48.38
2022-12-08T06:11:53.464Z,46.25
2022-12-08T06:14:20.411Z,46.53
2022-12-08T06:16:47.275Z,47.28
2022-12-08T06:19:14.206Z,45.13
2022-12-08T06:21:40.983Z,44.72
2022-12-08T06:24:08.203Z,45.42
2022-12-08T06:26:36.205Z,44.65
2022-12-08T06:29:05.048Z,46.97
2022-12-08T06:31:32.064Z,47.50
2022-12-08T06:33:59.001Z,49.38
2022-12-08T06:36:28.159Z,50.67
2022-12-08T06:38:56.120Z,49.80
2022-12-08T06:41:23.041Z,48.63
2022-12-08T06:43:49.933Z,44.45
2022-12-08T06:46:19.473Z,45.60
2022-12-08T06:48:46.892Z,46.65
2022-12-08T06:51:22.960Z,44.92
2022-12-08T06:53:50.074Z,48.35
2022-12-08T06:56:20.232Z,46.53
2022-12-08T07:01:19.795Z,47.85
2022-12-08T07:03:47.462Z,44.90
2022-12-08T07:06:18.144Z,46.75
2022-12-08T07:08:44.998Z,46.22
2022-12-08T07:11:18.065Z,46.45
2022-12-08T07:13:48.047Z,48.97
2022-12-08T07:16:15.229Z,45.40
2022-12-08T07:18:43.123Z,47.75
2022-12-08T07:21:12.478Z,48.58
2022-12-08T07:23:39.459Z,48.63
2022-12-08T07:26:08.496Z,53.67
2022-12-08T07:28:37.098Z,43.65
2022-12-08T07:31:05.039Z,45.40
2022-12-08T07:33:32.891Z,46.53
2022-12-08T07:36:05.343Z,46.65
2022-12-08T07:38:32.613Z,45.72
2022-12-08T07:40:59.626Z,48.35
2022-12-08T07:43:26.557Z,43.58
2022-12-08T07:45:53.544Z,45.00
2022-12-08T07:48:20.575Z,43.20
2022-12-08T07:50:47.885Z,45.08
2022-12-08T07:53:15.169Z,46.17
2022-12-08T07:55:43.342Z,43.80
2022-12-08T07:58:11.340Z,43.25
2022-12-08T08:00:38.495Z,44.90
2022-12-08T08:03:06.310Z,45.30
2022-12-08T08:05:33.232Z,46.45
2022-12-08T08:08:00.342Z,49.38
2022-12-08T08:10:27.343Z,43.25
2022-12-08T08:12:54.359Z,43.00
2022-12-08T08:15:21.501Z,45.55
2022-12-08T08:17:51.983Z,43.97
2022-12-08T08:20:20.407Z,45.08
2022-12-08T08:22:48.333Z,45.30
2022-12-08T08:25:15.992Z,47.53
2022-12-08T08:27:43.501Z,48.13
2022-12-08T08:30:18.119Z,47.90
2022-12-08T08:32:47.396Z,45.00
2022-12-08T08:35:14.445Z,46.55
2022-12-08T08:37:45.743Z,46.63
2022-12-08T08:40:15.812Z,46.10
2022-12-08T08:42:42.571Z,47.20
2022-12-08T08:45:10.078Z,49.67
2022-12-08T08:47:36.952Z,52.88
2022-12-08T08:50:04.993Z,49.70
2022-12-08T08:52:32.120Z,50.63
2022-12-08T08:54:59.000Z,50.40
2022-12-08T08:57:26.343Z,52.97
2022-12-08T08:59:54.104Z,51.42
2022-12-08T09:02:21.382Z,48.78
2022-12-08T09:04:48.755Z,50.72
2022-12-08T09:07:16.185Z,54.15
2022-12-08T09:09:43.301Z,53.25
2022-12-08T09:12:10.358Z,55.08
2022-12-08T09:14:37.366Z,56.72
2022-12-08T09:17:04.690Z,55.22
2022-12-08T09:19:31.665Z,52.55
2022-12-08T09:21:58.474Z,52.70
2022-12-08T09:24:25.443Z,56.85
2022-12-08T09:26:52.282Z,54.38
2022-12-08T09:29:19.111Z,57.78
2022-12-08T09:31:46.072Z,54.58
2022-12-08T09:34:13.369Z,54.20
2022-12-08T09:36:40.881Z,58.20
2022-12-08T09:39:07.877Z,59.90
2022-12-08T09:41:50.365Z,57.20
2022-12-08T09:44:40.678Z,54.35
2022-12-08T09:49:47.799Z,55.92
2022-12-08T09:52:23.683Z,56.05
2022-12-08T09:54:50.620Z,54.03
2022-12-08T09:57:20.945Z,52.97
2022-12-08T10:00:03.790Z,57.10
2022-12-08T10:02:32.684Z,57.00
2022-12-08T10:04:59.801Z,55.63
2022-12-08T10:07:45.639Z,49.25
2022-12-08T10:10:27.669Z,51.72
2022-12-08T10:12:57.295Z,54.30
2022-12-08T10:15:27.258Z,55.08
2022-12-08T10:17:55.072Z,51.70
2022-12-08T10:20:25.009Z,55.25
2022-12-08T10:23:13.107Z,52.10
2022-12-08T10:25:51.223Z,56.60
2022-12-08T10:28:18.270Z,54.78
2022-12-08T10:30:45.140Z,56.47
2022-12-08T10:33:18.230Z,57.78
2022-12-08T10:35:48.846Z,56.80
2022-12-08T10:38:23.071Z,61.33
2022-12-08T10:41:05.052Z,60.13
2022-12-08T10:43:33.575Z,56.55
2022-12-08T10:46:19.987Z,60.85
2022-12-08T10:48:54.010Z,58.40
2022-12-08T10:51:41.682Z,60.10
2022-12-08T10:54:34.527Z,59.00
2022-12-08T10:57:01.496Z,59.65
2022-12-08T10:59:29.355Z,62.47
2022-12-08T11:01:57.484Z,59.63
2022-12-08T11:04:30.339Z,58.70
2022-12-08T11:06:57.428Z,65.03
2022-12-08T11:09:34.244Z,62.85
2022-12-08T11:12:14.227Z,65.75
2022-12-08T11:14:43.891Z,59.97
2022-12-08T11:17:15.241Z,60.08
2022-12-08T11:19:46.659Z,60.70
2022-12-08T11:22:32.633Z,59.00
2022-12-08T11:25:02.043Z,55.80
2022-12-08T11:27:29.136Z,58.47
2022-12-08T11:29:56.442Z,50.95
2022-12-08T11:32:23.351Z,59.70
2022-12-08T11:35:03.851Z,118.15
2022-12-08T11:37:36.524Z,54.55
2022-12-08T11:40:08.345Z,56.95
2022-12-08T11:42:42.647Z,62.20
2022-12-08T11:45:16.855Z,61.63
2022-12-08T11:47:58.322Z,59.17
2022-12-08T11:50:55.766Z,55.67
2022-12-08T11:53:49.812Z,58.38
2022-12-08T11:56:22.619Z,56.15
2022-12-08T11:58:56.129Z,59.00
2022-12-08T12:01:25.710Z,62.90
2022-12-08T12:04:13.448Z,58.70
2022-12-08T12:07:21.645Z,60.40
2022-12-08T12:10:23.634Z,56.35
2022-12-08T12:13:05.859Z,60.60
2022-12-08T12:15:53.413Z,65.78
2022-12-08T12:18:26.361Z,59.20
2022-12-08T12:21:31.373Z,57.70
2022-12-08T12:24:04.639Z,57.33
2022-12-08T12:26:37.636Z,57.78
2022-12-08T12:29:12.613Z,59.72
2022-12-08T12:31:43.125Z,60.33
2022-12-08T12:34:21.751Z,62.20
2022-12-08T12:37:12.219Z,60.55
2022-12-08T12:40:19.963Z,59.40
2022-12-08T12:43:09.786Z,54.78
2022-12-08T12:45:43.574Z,60.55
2022-12-08T12:48:22.954Z,56.70
2022-12-08T12:50:51.635Z,53.85
2022-12-08T12:53:19.149Z,53.30
2022-12-08T12:55:46.118Z,54.97
2022-12-08T12:58:32.685Z,53.95
2022-12-08T13:01:14.201Z,55.42
2022-12-08T13:04:03.186Z,57.90
2022-12-08T13:06:47.284Z,59.10
2022-12-08T13:09:22.002Z,63.40
2022-12-08T13:11:56.307Z,64.40
2022-12-08T13:14:32.027Z,66.25
2022-12-08T13:17:01.579Z,64.82
2022-12-08T13:19:32.269Z,71.85
2022-12-08T13:21:59.961Z,70.80
2022-12-08T13:24:35.374Z,72.90
2022-12-08T13:27:05.298Z,69.45
2022-12-08T13:29:34.037Z,70.63
2022-12-08T13:32:03.137Z,66.93
2022-12-08T13:34:45.612Z,64.47
2022-12-08T13:37:12.504Z,62.70
2022-12-08T13:39:53.764Z,65.88
2022-12-08T13:42:41.206Z,61.55
2022-12-08T13:48:23.852Z,62.03
2022-12-08T13:57:12.507Z,64.10
2022-12-08T13:59:45.218Z,62.53
2022-12-08T14:02:30.326Z,64.25
2022-12-08T14:07:46.903Z,59.65
2022-12-08T14:10:19.895Z,58.17
2022-12-08T14:12:52.410Z,59.75
2022-12-08T14:15:20.232Z,54.97
2022-12-08T14:17:55.617Z,58.17
2022-12-08T14:20:31.595Z,61.22
2022-12-08T14:22:59.822Z,51.67
2022-12-08T14:25:29.650Z,55.85
2022-12-08T14:28:01.695Z,53.30
2022-12-08T14:30:32.869Z,55.67
2022-12-08T14:33:02.335Z,55.53
2022-12-08T14:35:34.952Z,56.20
2022-12-08T14:38:02.686Z,55.95
2022-12-08T14:40:35.396Z,54.03
2022-12-08T14:43:08.239Z,55.65
2022-12-08T14:45:41.548Z,56.33
2022-12-08T14:48:26.244Z,54.40
2022-12-08T14:51:14.354Z,55.00
2022-12-08T14:54:07.409Z,52.67
2022-12-08T14:56:39.466Z,51.42
2022-12-08T14:59:23.119Z,47.42
2022-12-08T15:01:53.971Z,48.88
2022-12-08T15:04:26.162Z,50.47
2022-12-08T15:07:01.045Z,48.75
2022-12-08T15:09:35.044Z,48.72
2022-12-08T15:12:26.750Z,52.03
2022-12-08T15:15:16.422Z,52.53
2022-12-08T15:17:50.356Z,52.55
2022-12-08T15:20:41.812Z,50.63
2022-12-08T15:23:28.605Z,51.85
2022-12-08T15:25:56.599Z,51.72
2022-12-08T15:28:30.352Z,51.97
2022-12-08T15:30:58.425Z,54.45
2022-12-08T15:33:26.269Z,54.83
2022-12-08T15:35:53.568Z,53.58
2022-12-08T15:38:31.842Z,52.63
2022-12-08T15:40:58.887Z,56.47
2022-12-08T15:43:26.297Z,58.05
2022-12-08T15:45:59.384Z,52.70
2022-12-08T15:48:29.996Z,54.33
2022-12-08T15:50:57.332Z,50.97
2022-12-08T15:53:26.584Z,49.17
2022-12-08T15:56:25.728Z,51.47
2022-12-08T15:58:57.532Z,44.25
2022-12-08T16:01:25.883Z,48.53
2022-12-08T16:07:20.441Z,51.85
2022-12-08T16:09:39.398Z,43.37
2022-12-08T16:12:57.164Z,45.67
2022-12-08T16:18:07.613Z,42.67
2022-12-08T16:23:41.815Z,43.05
2022-12-08T16:26:49.121Z,40.78
2022-12-08T16:29:08.255Z,41.08
2022-12-08T16:31:35.614Z,44.10
2022-12-08T16:34:02.649Z,41.08
2022-12-08T16:36:29.526Z,44.83
2022-12-08T16:38:56.415Z,45.10
2022-12-08T16:41:41.701Z,42.00
2022-12-08T16:44:09.939Z,44.20
2022-12-08T16:46:37.214Z,43.85
2022-12-08T16:49:07.797Z,40.95
2022-12-08T16:51:34.831Z,43.47
2022-12-08T16:54:01.590Z,43.33
2022-12-08T16:56:33.005Z,39.10
2022-12-08T16:59:02.752Z,44.50
2022-12-08T17:01:29.762Z,40.83
2022-12-08T17:04:29.120Z,36.50
2022-12-08T17:06:43.984Z,38.58
2022-12-08T17:09:10.781Z,40.60
2022-12-08T17:11:42.904Z,36.85
2022-12-08T17:14:14.459Z,35.53
2022-12-08T17:16:41.999Z,35.72
2022-12-08T17:19:09.055Z,37.13
2022-12-08T17:21:35.933Z,37.28
2022-12-08T17:24:02.672Z,35.70
2022-12-08T17:26:29.599Z,35.28
2022-12-08T17:29:01.144Z,32.80
2022-12-08T17:31:30.267Z,36.10
2022-12-08T17:34:08.396Z,33.65
2022-12-08T17:36:35.333Z,33.80
2022-12-08T17:39:02.485Z,31.65
2022-12-08T17:41:30.315Z,29.80
2022-12-08T17:43:57.401Z,31.58
2022-12-08T17:46:24.689Z,31.15
2022-12-08T17:48:52.131Z,31.88
2022-12-08T17:51:19.381Z,33.33
2022-12-08T17:53:46.307Z,33.08
2022-12-08T17:56:21.526Z,33.83
2022-12-08T17:58:54.304Z,34.65
2022-12-08T18:01:23.206Z,35.67
2022-12-08T18:03:50.637Z,31.63
2022-12-08T18:06:17.887Z,29.33
2022-12-08T18:08:45.560Z,29.90
2022-12-08T18:11:19.637Z,29.20
2022-12-08T18:13:48.511Z,30.15
2022-12-08T18:16:16.422Z,30.05
2022-12-08T18:18:43.594Z,30.48
2022-12-08T18:21:10.725Z,32.30
2022-12-08T18:23:39.024Z,31.02
2022-12-08T18:26:07.286Z,32.22
2022-12-08T18:28:34.956Z,29.98
2022-12-08T18:31:02.005Z,29.75
2022-12-08T18:33:28.954Z,28.15
2022-12-08T18:35:55.857Z,28.23
2022-12-08T18:38:22.700Z,26.48
2022-12-08T18:40:49.475Z,29.83
2022-12-08T18:43:16.392Z,32.70
2022-12-08T18:45:45.615Z,33.78
2022-12-08T18:48:12.646Z,28.07
2022-12-08T18:50:43.222Z,28.40
2022-12-08T18:53:10.061Z,26.08
2022-12-08T18:55:38.034Z,28.98
2022-12-08T18:58:05.122Z,29.10
2022-12-08T19:00:32.257Z,26.73
2022-12-08T19:02:59.630Z,27.00
2022-12-08T19:05:26.544Z,27.67
2022-12-08T19:07:53.385Z,27.88
2022-12-08T19:10:20.276Z,29.50
2022-12-08T19:12:50.616Z,28.70
2022-12-08T19:15:18.622Z,30.40
2022-12-08T19:17:45.471Z,31.75
2022-12-08T19:20:13.274Z,30.00
2022-12-08T19:22:40.116Z,29.30
2022-12-08T19:25:07.468Z,29.45
2022-12-08T19:27:34.852Z,31.85
2022-12-08T19:30:01.930Z,29.25
2022-12-08T19:32:30.149Z,30.17
2022-12-08T19:34:57.085Z,27.92
2022-12-08T19:37:23.945Z,28.38
2022-12-08T19:40:09.531Z,31.75
2022-12-08T19:42:54.879Z,29.88
2022-12-08T19:45:22.367Z,30.30
2022-12-08T19:47:49.466Z,32.80
2022-12-08T19:50:35.894Z,34.88
2022-12-08T19:53:15.049Z,35.03
2022-12-08T19:55:43.265Z,35.38
2022-12-08T19:58:11.014Z,35.67
2022-12-08T20:00:39.206Z,34.83
2022-12-08T20:03:06.793Z,38.53
2022-12-08T20:05:36.307Z,37.08
2022-12-08T20:08:03.223Z,34.25
2022-12-08T20:10:34.079Z,37.00
2022-12-08T20:13:19.997Z,38.38
2022-12-08T20:15:47.214Z,37.13
2022-12-08T20:18:15.401Z,38.40
2022-12-08T20:20:45.288Z,39.40
2022-12-08T20:23:12.340Z,38.75
2022-12-08T20:25:44.872Z,37.90
2022-12-08T20:28:11.887Z,38.30
2022-12-08T20:30:40.038Z,38.15
2022-12-08T20:33:07.275Z,37.05
2022-12-08T20:35:34.175Z,38.50
2022-12-08T20:38:01.080Z,38.95
2022-12-08T20:40:27.963Z,36.03
2022-12-08T20:42:54.803Z,35.13
2022-12-08T20:45:21.643Z,34.90
2022-12-08T20:47:48.463Z,34.35
2022-12-08T20:50:15.472Z,32.28
2022-12-08T20:52:42.463Z,31.88
2022-12-08T20:55:09.993Z,32.22
2022-12-08T20:57:37.036Z,30.27
2022-12-08T21:00:05.725Z,31.73
2022-12-08T21:02:33.295Z,29.45
2022-12-08T21:05:00.697Z,30.00
2022-12-08T21:07:27.827Z,30.27
2022-12-08T21:09:54.851Z,31.00
2022-12-08T21:12:21.881Z,29.15
2022-12-08T21:14:48.856Z,28.92
2022-12-08T21:17:15.936Z,30.63
2022-12-08T21:19:43.069Z,29.33
2022-12-08T21:22:09.916Z,29.30
2022-12-08T21:24:38.132Z,31.35
2022-12-08T21:27:05.208Z,31.17
2022-12-08T21:29:32.171Z,32.70
2022-12-08T21:32:00.412Z,31.90
2022-12-08T21:34:31.908Z,35.00
2022-12-08T21:36:59.131Z,36.63
2022-12-08T21:39:26.136Z,34.50
2022-12-08T21:42:12.076Z,35.38
2022-12-08T21:44:38.974Z,33.67
2022-12-08T21:47:06.541Z,34.72
2022-12-08T21:49:33.728Z,34.10
2022-12-08T21:52:00.668Z,35.08
2022-12-08T21:54:27.758Z,33.35
2022-12-08T21:56:54.728Z,31.85
2022-12-08T21:59:21.602Z,31.13
2022-12-08T22:01:48.666Z,31.17
2022-12-08T22:04:21.442Z,30.25
2022-12-08T22:06:49.129Z,32.35
2022-12-08T22:09:16.076Z,33.92
2022-12-08T22:11:44.128Z,32.05
2022-12-08T22:14:14.850Z,32.05
2022-12-08T22:16:43.229Z,33.95
2022-12-08T22:19:10.710Z,31.85
2022-12-08T22:21:38.392Z,30.48
2022-12-08T22:24:06.179Z,32.72
2022-12-08T22:26:33.662Z,33.65
2022-12-08T22:29:00.633Z,30.77
2022-12-08T22:31:27.853Z,30.85
2022-12-08T22:33:55.099Z,32.10
2022-12-08T22:36:24.685Z,34.13
2022-12-08T22:38:53.981Z,32.47
2022-12-08T22:41:21.752Z,30.83
2022-12-08T22:43:49.740Z,34.50
2022-12-08T22:46:24.078Z,34.45
2022-12-08T22:48:52.345Z,36.55
2022-12-08T22:51:22.519Z,36.88
2022-12-08T22:53:50.152Z,34.67
2022-12-08T22:56:19.177Z,36.92
2022-12-08T22:58:46.467Z,36.38
2022-12-08T23:01:22.158Z,34.83
2022-12-08T23:03:49.429Z,35.55
2022-12-08T23:06:16.992Z,36.00
2022-12-08T23:08:44.796Z,37.38
2022-12-08T23:11:12.884Z,36.50
2022-12-08T23:13:40.006Z,35.95
2022-12-08T23:16:08.979Z,36.35
2022-12-08T23:18:37.004Z,35.30
2022-12-08T23:21:06.874Z,34.88
2022-12-08T23:23:33.773Z,38.03
2022-12-08T23:26:01.025Z,36.65
2022-12-08T23:28:28.035Z,39.05
2022-12-08T23:30:55.186Z,36.33
2022-12-08T23:33:22.546Z,40.35
2022-12-08T23:35:58.033Z,39.47
2022-12-08T23:38:25.426Z,38.67
2022-12-08T23:40:53.216Z,40.00
2022-12-08T23:43:20.140Z,41.08
2022-12-08T23:45:48.593Z,41.72
2022-12-08T23:48:15.807Z,40.95
2022-12-08T23:50:42.820Z,41.63
2022-12-08T23:53:09.729Z,41.47
2022-12-08T23:55:36.593Z,42.25
2022-12-08T23:58:03.736Z,40.67
